createdAt,value
2023-03-15T00:02:07.225Z,87.82
2023-03-15T00:04:35.359Z,88.38
2023-03-15T00:07:03.249Z,88.32
2023-03-15T00:09:31.111Z,87.95
2023-03-15T00:11:58.760Z,87.67
2023-03-15T00:14:26.718Z,87.54
2023-03-15T00:16:54.876Z,87.82
2023-03-15T00:19:22.791Z,87.96
2023-03-15T00:21:50.411Z,88.36
2023-03-15T00:24:18.370Z,88.18
2023-03-15T00:26:45.970Z,88.12
2023-03-15T00:29:14.050Z,88.16
2023-03-15T00:31:41.774Z,88.06
2023-03-15T00:34:09.656Z,87.89
2023-03-15T00:36:37.764Z,87.96
2023-03-15T00:39:05.712Z,87.89
2023-03-15T00:41:33.956Z,87.54
2023-03-15T00:44:04.253Z,87.10
2023-03-15T00:46:32.004Z,86.96
2023-03-15T00:48:59.930Z,86.79
2023-03-15T00:51:27.687Z,86.50
2023-03-15T00:53:55.856Z,86.15
2023-03-15T00:56:27.065Z,86.10
2023-03-15T00:58:55.078Z,85.90
2023-03-15T01:01:26.099Z,85.93
2023-03-15T01:03:54.510Z,85.68
2023-03-15T01:06:25.210Z,85.05
2023-03-15T01:08:55.846Z,80.16
2023-03-15T01:11:26.378Z,80.20
2023-03-15T01:13:57.882Z,80.98
2023-03-15T01:16:27.281Z,82.30
2023-03-15T01:18:55.808Z,83.16
2023-03-15T01:21:24.565Z,83.85
2023-03-15T01:23:53.557Z,84.43
2023-03-15T01:26:23.335Z,85.27
2023-03-15T01:28:51.680Z,85.58
2023-03-15T01:31:26.736Z,86.76
2023-03-15T01:33:55.261Z,87.34
2023-03-15T01:36:23.257Z,86.91
2023-03-15T01:38:51.727Z,86.30
2023-03-15T01:41:25.921Z,85.54
2023-03-15T01:43:54.415Z,85.30
2023-03-15T01:46:34.195Z,86.08
2023-03-15T01:49:19.015Z,87.14
2023-03-15T01:52:06.787Z,88.61
2023-03-15T01:54:50.984Z,88.68
2023-03-15T01:57:25.894Z,88.93
2023-03-15T01:59:57.682Z,88.31
2023-03-15T02:02:26.244Z,87.62
2023-03-15T02:05:07.068Z,87.06
2023-03-15T02:07:34.928Z,86.16
2023-03-15T02:10:12.357Z,85.79
2023-03-15T02:12:46.382Z,85.17
2023-03-15T02:15:15.692Z,84.56
2023-03-15T02:17:46.350Z,83.53
2023-03-15T02:20:17.530Z,83.17
2023-03-15T02:22:56.092Z,82.65
2023-03-15T02:25:51.494Z,82.81
2023-03-15T02:28:20.641Z,82.66
2023-03-15T02:30:49.375Z,82.46
2023-03-15T02:33:30.094Z,83.19
2023-03-15T02:36:15.155Z,82.94
2023-03-15T02:38:43.877Z,83.53
2023-03-15T02:41:17.083Z,83.56
2023-03-15T02:43:45.955Z,83.36
2023-03-15T02:46:15.110Z,83.46
2023-03-15T02:48:44.976Z,83.55
2023-03-15T02:51:27.160Z,83.06
2023-03-15T02:53:54.848Z,82.95
2023-03-15T02:56:23.090Z,83.12
2023-03-15T02:58:50.943Z,83.10
2023-03-15T03:01:20.085Z,83.00
2023-03-15T03:03:48.511Z,83.02
2023-03-15T03:06:17.983Z,82.75
2023-03-15T03:08:47.792Z,82.92
2023-03-15T03:11:19.324Z,83.24
2023-03-15T03:13:47.435Z,82.51
2023-03-15T03:16:15.416Z,82.67
2023-03-15T03:18:44.469Z,82.05
2023-03-15T03:21:14.834Z,81.96
2023-03-15T03:23:46.296Z,82.40
2023-03-15T03:26:17.794Z,82.69
2023-03-15T03:28:48.749Z,82.45
2023-03-15T03:31:24.479Z,82.57
2023-03-15T03:33:55.206Z,82.36
2023-03-15T03:36:24.972Z,82.49
2023-03-15T03:38:57.239Z,82.51
2023-03-15T03:41:25.684Z,82.08
2023-03-15T03:43:53.344Z,82.53
2023-03-15T03:46:23.758Z,82.42
2023-03-15T03:48:53.962Z,82.53
2023-03-15T03:51:23.279Z,82.42
2023-03-15T03:53:51.144Z,81.82
2023-03-15T03:56:19.233Z,81.47
2023-03-15T03:58:47.128Z,81.69
2023-03-15T04:01:22.570Z,82.12
2023-03-15T04:03:53.037Z,81.81
2023-03-15T04:06:23.229Z,82.14
2023-03-15T04:08:50.935Z,82.42
2023-03-15T04:11:28.703Z,82.73
2023-03-15T04:14:00.222Z,82.71
2023-03-15T04:16:29.778Z,82.90
2023-03-15T04:19:08.413Z,82.00
2023-03-15T04:21:38.179Z,82.14
2023-03-15T04:24:17.732Z,82.50
2023-03-15T04:26:58.175Z,82.67
2023-03-15T04:29:44.306Z,82.91
2023-03-15T04:32:22.314Z,82.32
2023-03-15T04:35:04.432Z,82.46
2023-03-15T04:38:01.652Z,81.95
2023-03-15T04:40:50.139Z,81.86
2023-03-15T04:43:27.981Z,82.53
2023-03-15T04:46:10.694Z,82.63
2023-03-15T04:48:57.364Z,81.64
2023-03-15T04:51:42.117Z,82.07
2023-03-15T04:54:23.392Z,81.83
2023-03-15T04:57:15.946Z,81.35
2023-03-15T04:59:51.413Z,80.82
2023-03-15T05:02:43.176Z,81.33
2023-03-15T05:05:29.445Z,80.78
2023-03-15T05:08:10.549Z,80.72
2023-03-15T05:10:59.261Z,80.77
2023-03-15T05:13:50.117Z,80.82
2023-03-15T05:16:36.756Z,79.95
2023-03-15T05:19:20.342Z,79.41
2023-03-15T05:22:14.571Z,78.75
2023-03-15T05:25:11.497Z,77.97
2023-03-15T05:27:56.038Z,78.75
2023-03-15T05:30:40.156Z,78.53
2023-03-15T05:33:22.548Z,78.33
2023-03-15T05:36:09.460Z,77.81
2023-03-15T05:38:49.624Z,77.32
2023-03-15T05:41:25.123Z,76.46
2023-03-15T05:44:13.121Z,76.00
2023-03-15T05:46:56.225Z,75.91
2023-03-15T05:49:53.750Z,75.10
2023-03-15T05:52:47.250Z,73.78
2023-03-15T05:55:31.988Z,72.51
2023-03-15T05:58:26.959Z,72.66
2023-03-15T06:01:13.346Z,72.77
2023-03-15T06:04:01.354Z,72.18
2023-03-15T06:06:33.817Z,72.45
2023-03-15T06:09:03.277Z,72.12
2023-03-15T06:11:31.431Z,71.70
2023-03-15T06:14:00.936Z,71.38
2023-03-15T06:16:37.089Z,71.58
2023-03-15T06:19:05.523Z,71.44
2023-03-15T06:21:33.566Z,71.13
2023-03-15T06:24:02.640Z,70.86
2023-03-15T06:26:30.842Z,70.81
2023-03-15T06:29:03.842Z,70.58
2023-03-15T06:31:31.869Z,70.12
2023-03-15T06:34:05.231Z,69.73
2023-03-15T06:36:34.679Z,69.59
2023-03-15T06:39:02.858Z,69.34
2023-03-15T06:41:32.586Z,68.36
2023-03-15T06:44:10.961Z,68.30
2023-03-15T06:46:40.038Z,67.11
2023-03-15T06:49:07.963Z,67.09
2023-03-15T06:51:37.011Z,67.18
2023-03-15T06:54:04.676Z,66.83
2023-03-15T06:56:37.336Z,66.02
2023-03-15T06:59:05.548Z,65.78
2023-03-15T07:01:33.545Z,65.23
2023-03-15T07:04:01.228Z,64.86
2023-03-15T07:06:29.439Z,64.29
2023-03-15T07:08:57.241Z,64.13
2023-03-15T07:11:25.306Z,64.36
2023-03-15T07:13:53.120Z,64.32
2023-03-15T07:16:21.247Z,64.15
2023-03-15T07:18:50.387Z,65.00
2023-03-15T07:21:18.376Z,64.13
2023-03-15T07:23:46.005Z,64.17
2023-03-15T07:26:14.007Z,64.19
2023-03-15T07:28:43.774Z,64.56
2023-03-15T07:31:12.424Z,64.47
2023-03-15T07:33:41.706Z,64.14
2023-03-15T07:36:09.940Z,63.95
2023-03-15T07:38:37.679Z,64.24
2023-03-15T07:41:06.988Z,63.83
2023-03-15T07:43:35.476Z,63.28
2023-03-15T07:46:15.936Z,62.43
2023-03-15T07:48:43.719Z,61.67
2023-03-15T07:51:11.989Z,59.89
2023-03-15T07:53:39.735Z,57.76
2023-03-15T07:56:07.886Z,56.30
2023-03-15T07:58:35.684Z,54.18
2023-03-15T08:01:03.640Z,52.78
2023-03-15T08:03:31.607Z,52.38
2023-03-15T08:05:59.497Z,52.02
2023-03-15T08:08:27.455Z,52.64
2023-03-15T08:10:56.089Z,53.21
2023-03-15T08:13:24.373Z,53.31
2023-03-15T08:15:52.585Z,53.82
2023-03-15T08:18:20.239Z,54.38
2023-03-15T08:20:48.173Z,54.80
2023-03-15T08:23:17.367Z,55.24
2023-03-15T08:25:45.982Z,55.12
2023-03-15T08:28:14.121Z,55.07
2023-03-15T08:30:42.183Z,55.17
2023-03-15T08:33:10.166Z,55.53
2023-03-15T08:35:38.328Z,55.38
2023-03-15T08:38:06.016Z,55.47
2023-03-15T08:40:33.997Z,55.35
2023-03-15T08:43:01.675Z,55.13
2023-03-15T08:45:30.503Z,55.17
2023-03-15T08:47:59.077Z,55.62
2023-03-15T08:50:28.732Z,55.44
2023-03-15T08:52:56.537Z,55.73
2023-03-15T08:55:24.453Z,55.45
2023-03-15T08:57:52.212Z,55.30
2023-03-15T09:00:22.804Z,54.90
2023-03-15T09:02:54.244Z,53.85
2023-03-15T09:05:23.663Z,54.10
2023-03-15T09:07:53.242Z,53.95
2023-03-15T09:10:22.162Z,52.42
2023-03-15T09:12:53.716Z,51.65
2023-03-15T09:15:22.067Z,50.65
2023-03-15T09:17:51.898Z,49.37
2023-03-15T09:20:22.886Z,47.71
2023-03-15T09:22:53.374Z,46.43
2023-03-15T09:25:22.523Z,45.53
2023-03-15T09:27:50.659Z,44.56
2023-03-15T09:30:18.923Z,43.93
2023-03-15T09:32:46.891Z,42.44
2023-03-15T09:35:18.067Z,42.07
2023-03-15T09:37:46.612Z,42.35
2023-03-15T09:40:22.227Z,42.99
2023-03-15T09:42:57.751Z,42.88
2023-03-15T09:45:31.541Z,42.30
2023-03-15T09:48:23.885Z,40.88
2023-03-15T09:50:53.373Z,39.90
2023-03-15T09:53:33.229Z,39.66
2023-03-15T09:56:01.277Z,40.07
2023-03-15T09:58:32.785Z,40.88
2023-03-15T10:01:06.545Z,42.01
2023-03-15T10:03:42.869Z,42.39
2023-03-15T10:06:17.554Z,41.85
2023-03-15T10:08:47.483Z,41.21
2023-03-15T10:11:35.754Z,40.36
2023-03-15T10:14:33.920Z,40.74
2023-03-15T10:17:08.932Z,41.16
2023-03-15T10:19:45.882Z,40.50
2023-03-15T10:22:13.724Z,40.72
2023-03-15T10:24:57.397Z,39.88
2023-03-15T10:27:32.388Z,38.72
2023-03-15T10:30:01.341Z,38.47
2023-03-15T10:32:38.018Z,39.75
2023-03-15T10:35:16.777Z,40.87
2023-03-15T10:37:45.267Z,41.94
2023-03-15T10:40:16.278Z,41.91
2023-03-15T10:42:46.725Z,42.63
2023-03-15T10:45:25.365Z,43.22
2023-03-15T10:48:00.356Z,43.34
2023-03-15T10:50:34.044Z,43.70
2023-03-15T10:53:08.893Z,44.14
2023-03-15T10:55:42.254Z,43.63
2023-03-15T10:58:21.276Z,43.51
2023-03-15T11:00:59.193Z,43.39
2023-03-15T11:03:27.439Z,43.37
2023-03-15T11:05:57.532Z,43.52
2023-03-15T11:08:45.813Z,43.40
2023-03-15T11:11:13.465Z,43.45
2023-03-15T11:13:54.629Z,43.71
2023-03-15T11:16:23.025Z,43.56
2023-03-15T11:19:03.635Z,43.69
2023-03-15T11:21:33.862Z,44.49
2023-03-15T11:24:04.482Z,44.32
2023-03-15T11:26:41.079Z,44.23
2023-03-15T11:29:24.265Z,45.22
2023-03-15T11:31:53.762Z,44.88
2023-03-15T11:34:41.710Z,44.76
2023-03-15T11:37:18.526Z,45.02
2023-03-15T11:40:12.057Z,44.22
2023-03-15T11:42:51.924Z,43.84
2023-03-15T11:46:01.010Z,44.14
2023-03-15T11:48:55.816Z,44.42
2023-03-15T11:51:23.962Z,43.83
2023-03-15T11:54:05.563Z,43.66
2023-03-15T11:57:30.744Z,43.43
2023-03-15T12:00:16.198Z,44.09
2023-03-15T12:03:24.513Z,43.36
2023-03-15T12:06:12.555Z,43.19
2023-03-15T12:08:42.259Z,43.32
2023-03-15T12:11:24.877Z,43.65
2023-03-15T12:14:01.841Z,43.80
2023-03-15T12:16:34.789Z,43.88
2023-03-15T12:19:16.737Z,43.50
2023-03-15T12:21:53.317Z,43.16
2023-03-15T12:24:31.783Z,43.38
2023-03-15T12:27:20.708Z,43.24
2023-03-15T12:29:58.520Z,43.50
2023-03-15T12:32:27.599Z,43.55
2023-03-15T12:34:58.560Z,43.72
2023-03-15T12:37:56.494Z,44.30
2023-03-15T12:40:55.512Z,44.09
2023-03-15T12:43:44.062Z,44.27
2023-03-15T12:46:36.936Z,44.22
2023-03-15T12:49:24.460Z,44.32
2023-03-15T12:51:59.269Z,43.82
2023-03-15T12:54:39.247Z,43.98
2023-03-15T12:57:10.414Z,44.21
2023-03-15T12:59:53.858Z,44.29
2023-03-15T13:02:44.864Z,44.73
2023-03-15T13:05:21.310Z,44.99
2023-03-15T13:08:17.660Z,45.21
2023-03-15T13:11:06.852Z,45.41
2023-03-15T13:13:53.620Z,45.38
2023-03-15T13:16:29.028Z,45.52
2023-03-15T13:19:12.028Z,45.27
2023-03-15T13:22:02.084Z,44.80
2023-03-15T13:25:09.973Z,44.63
2023-03-15T13:27:46.410Z,44.31
2023-03-15T13:30:32.311Z,44.29
2023-03-15T13:33:21.161Z,44.56
2023-03-15T13:36:06.766Z,44.93
2023-03-15T13:38:43.682Z,45.23
2023-03-15T13:41:31.103Z,45.45
2023-03-15T13:44:02.471Z,44.96
2023-03-15T13:46:31.577Z,45.08
2023-03-15T13:49:01.441Z,44.54
2023-03-15T13:51:33.112Z,44.82
2023-03-15T13:54:24.240Z,44.78
2023-03-15T13:57:18.419Z,44.64
2023-03-15T14:00:10.735Z,44.40
2023-03-15T14:02:47.885Z,43.89
2023-03-15T14:05:27.359Z,43.85
2023-03-15T14:08:06.425Z,44.10
2023-03-15T14:10:38.962Z,44.80
2023-03-15T14:13:59.826Z,45.24
2023-03-15T14:16:34.674Z,45.73
2023-03-15T14:19:26.153Z,46.07
2023-03-15T14:22:23.008Z,45.89
2023-03-15T14:24:52.605Z,46.50
2023-03-15T14:27:28.399Z,46.14
2023-03-15T14:30:02.426Z,46.71
2023-03-15T14:32:33.268Z,46.48
2023-03-15T14:35:28.909Z,46.52
2023-03-15T14:38:23.435Z,46.51
2023-03-15T14:40:53.487Z,46.64
2023-03-15T14:43:21.292Z,46.79
2023-03-15T14:45:50.059Z,46.92
2023-03-15T14:48:43.956Z,47.16
2023-03-15T14:51:23.668Z,46.64
2023-03-15T14:53:56.603Z,45.70
2023-03-15T14:56:25.461Z,45.63
2023-03-15T14:58:54.270Z,45.60
2023-03-15T15:01:27.003Z,45.48
2023-03-15T15:03:59.784Z,45.77
2023-03-15T15:06:31.919Z,46.23
2023-03-15T15:09:03.062Z,46.75
2023-03-15T15:11:31.030Z,47.25
2023-03-15T15:13:58.764Z,47.51
2023-03-15T15:16:26.924Z,47.05
2023-03-15T15:18:54.687Z,47.18
2023-03-15T15:21:31.236Z,47.27
2023-03-15T15:24:03.389Z,47.15
2023-03-15T15:26:33.510Z,47.04
2023-03-15T15:29:01.316Z,47.15
2023-03-15T15:31:33.667Z,47.38
2023-03-15T15:34:02.029Z,47.70
2023-03-15T15:36:36.425Z,47.62
2023-03-15T15:39:10.502Z,47.80
2023-03-15T15:41:38.417Z,47.98
2023-03-15T15:44:16.477Z,48.30
2023-03-15T15:46:45.021Z,48.38
2023-03-15T15:49:12.983Z,48.56
2023-03-15T15:51:45.886Z,48.62
2023-03-15T15:54:24.888Z,48.71
2023-03-15T15:56:57.813Z,49.14
2023-03-15T15:59:26.115Z,49.37
2023-03-15T16:02:03.129Z,49.50
2023-03-15T16:04:32.725Z,49.45
2023-03-15T16:07:03.553Z,49.45
2023-03-15T16:09:36.115Z,49.85
2023-03-15T16:12:14.401Z,49.72
2023-03-15T16:14:42.786Z,50.19
2023-03-15T16:17:22.538Z,50.40
2023-03-15T16:19:54.487Z,50.24
2023-03-15T16:22:23.813Z,50.51
2023-03-15T16:24:54.774Z,51.12
2023-03-15T16:27:26.914Z,51.10
2023-03-15T16:29:56.186Z,51.49
2023-03-15T16:32:41.071Z,52.06
2023-03-15T16:35:16.238Z,52.68
2023-03-15T16:37:45.814Z,52.99
2023-03-15T16:40:25.393Z,52.98
2023-03-15T16:42:53.412Z,53.66
2023-03-15T16:45:21.596Z,54.14
2023-03-15T16:47:50.080Z,54.67
2023-03-15T16:50:18.747Z,54.55
2023-03-15T16:52:49.577Z,55.12
2023-03-15T16:55:22.173Z,55.70
2023-03-15T16:57:50.192Z,55.82
2023-03-15T17:00:18.410Z,56.29
2023-03-15T17:02:48.420Z,57.20
2023-03-15T17:05:20.937Z,57.45
2023-03-15T17:07:50.596Z,57.72
2023-03-15T17:10:24.407Z,58.70
2023-03-15T17:12:54.070Z,59.21
2023-03-15T17:15:24.947Z,60.00
2023-03-15T17:17:57.206Z,60.72
2023-03-15T17:20:29.428Z,61.37
2023-03-15T17:23:01.404Z,61.87
2023-03-15T17:25:30.272Z,62.75
2023-03-15T17:27:58.190Z,63.74
2023-03-15T17:30:31.989Z,64.29
2023-03-15T17:33:00.956Z,64.82
2023-03-15T17:35:35.093Z,64.78
2023-03-15T17:38:05.989Z,65.44
2023-03-15T17:40:36.335Z,65.76
2023-03-15T17:43:04.910Z,66.80
2023-03-15T17:45:34.518Z,67.05
2023-03-15T17:48:02.754Z,67.30
2023-03-15T17:50:33.255Z,67.97
2023-03-15T17:53:04.265Z,68.38
2023-03-15T17:55:35.787Z,68.49
2023-03-15T17:58:09.286Z,69.00
2023-03-15T18:00:37.297Z,69.56
2023-03-15T18:03:05.322Z,69.64
2023-03-15T18:05:33.004Z,69.82
2023-03-15T18:08:03.952Z,70.33
2023-03-15T18:10:38.393Z,70.51
2023-03-15T18:13:06.557Z,71.02
2023-03-15T18:15:34.235Z,71.62
2023-03-15T18:18:03.591Z,72.18
2023-03-15T18:20:32.726Z,72.58
2023-03-15T18:23:00.664Z,72.87
2023-03-15T18:25:31.511Z,73.20
2023-03-15T18:28:00.523Z,73.77
2023-03-15T18:30:30.887Z,74.19
2023-03-15T18:32:59.764Z,74.42
2023-03-15T18:35:29.708Z,75.36
2023-03-15T18:37:58.224Z,75.21
2023-03-15T18:40:29.574Z,75.66
2023-03-15T18:42:58.739Z,76.27
2023-03-15T18:45:32.492Z,76.54
2023-03-15T18:48:00.542Z,76.95
2023-03-15T18:50:29.321Z,77.01
2023-03-15T18:52:57.914Z,77.36
2023-03-15T18:55:25.783Z,77.75
2023-03-15T18:57:55.072Z,77.95
2023-03-15T19:00:26.872Z,78.26
2023-03-15T19:02:58.159Z,78.33
2023-03-15T19:05:27.182Z,78.89
2023-03-15T19:07:55.316Z,79.38
2023-03-15T19:10:24.639Z,79.88
2023-03-15T19:12:53.479Z,80.65
2023-03-15T19:15:23.015Z,81.49
2023-03-15T19:17:54.624Z,81.78
2023-03-15T19:20:24.608Z,81.64
2023-03-15T19:22:52.819Z,81.75
2023-03-15T19:25:21.523Z,82.31
2023-03-15T19:27:49.433Z,82.50
2023-03-15T19:30:20.977Z,82.85
2023-03-15T19:32:50.091Z,82.63
2023-03-15T19:35:19.691Z,82.47
2023-03-15T19:37:48.795Z,82.40
2023-03-15T19:40:17.893Z,82.10
2023-03-15T19:42:46.801Z,82.10
2023-03-15T19:45:15.539Z,81.99
2023-03-15T19:47:43.339Z,82.04
2023-03-15T19:50:13.953Z,81.81
2023-03-15T19:52:48.796Z,81.92
2023-03-15T19:55:19.099Z,81.67
2023-03-15T19:57:47.490Z,81.97
2023-03-15T20:00:18.913Z,82.59
2023-03-15T20:02:47.728Z,82.72
2023-03-15T20:05:18.623Z,82.96
2023-03-15T20:07:47.609Z,83.33
2023-03-15T20:10:15.720Z,83.55
2023-03-15T20:12:45.345Z,83.33
2023-03-15T20:15:16.511Z,83.37
2023-03-15T20:17:45.098Z,83.92
2023-03-15T20:20:14.672Z,83.79
2023-03-15T20:22:44.689Z,83.52
2023-03-15T20:25:16.079Z,83.24
2023-03-15T20:27:43.886Z,82.90
2023-03-15T20:30:14.792Z,82.93
2023-03-15T20:32:43.406Z,82.91
2023-03-15T20:35:12.171Z,82.47
2023-03-15T20:37:41.633Z,82.41
2023-03-15T20:40:13.359Z,82.53
2023-03-15T20:42:42.130Z,82.04
2023-03-15T20:45:12.376Z,81.90
2023-03-15T20:47:41.213Z,82.06
2023-03-15T20:50:11.760Z,82.29
2023-03-15T20:52:40.945Z,82.09
2023-03-15T20:55:10.530Z,82.27
2023-03-15T20:57:41.368Z,81.76
2023-03-15T21:00:19.048Z,81.86
2023-03-15T21:02:47.821Z,81.69
2023-03-15T21:05:17.087Z,81.90
2023-03-15T21:07:45.677Z,81.76
2023-03-15T21:10:14.181Z,81.63
2023-03-15T21:12:42.300Z,82.00
2023-03-15T21:15:17.654Z,81.76
2023-03-15T21:17:48.915Z,81.97
2023-03-15T21:20:18.031Z,82.53
2023-03-15T21:22:45.796Z,82.97
2023-03-15T21:25:13.680Z,83.14
2023-03-15T21:27:41.447Z,83.39
2023-03-15T21:30:10.385Z,83.45
2023-03-15T21:32:38.384Z,83.91
2023-03-15T21:35:07.185Z,83.88
2023-03-15T21:37:35.250Z,83.94
2023-03-15T21:40:05.104Z,83.80
2023-03-15T21:42:34.098Z,84.00
2023-03-15T21:45:02.167Z,84.19
2023-03-15T21:47:30.080Z,83.99
2023-03-15T21:49:58.003Z,84.11
2023-03-15T21:52:26.271Z,83.71
2023-03-15T21:54:54.431Z,83.30
2023-03-15T21:57:22.377Z,83.56
2023-03-15T21:59:50.874Z,83.06
2023-03-15T22:02:18.607Z,83.13
2023-03-15T22:04:46.903Z,83.11
2023-03-15T22:07:14.595Z,82.43
2023-03-15T22:09:43.618Z,82.26
2023-03-15T22:12:12.967Z,82.42
2023-03-15T22:14:43.538Z,82.04
2023-03-15T22:17:13.369Z,82.63
2023-03-15T22:19:41.640Z,82.58
2023-03-15T22:22:09.927Z,82.44
2023-03-15T22:24:37.819Z,82.28
2023-03-15T22:27:05.599Z,82.23
2023-03-15T22:29:33.921Z,82.20
2023-03-15T22:32:01.642Z,82.41
2023-03-15T22:34:29.531Z,82.16
2023-03-15T22:36:57.222Z,82.33
2023-03-15T22:39:26.137Z,82.15
2023-03-15T22:41:54.211Z,81.93
2023-03-15T22:44:22.390Z,81.85
2023-03-15T22:46:50.239Z,82.17
2023-03-15T22:49:18.308Z,82.15
2023-03-15T22:51:45.959Z,82.33
2023-03-15T22:54:15.115Z,82.59
2023-03-15T22:56:42.867Z,82.96
2023-03-15T22:59:10.905Z,83.10
2023-03-15T23:01:38.625Z,83.69
2023-03-15T23:04:06.770Z,83.36
2023-03-15T23:06:34.425Z,83.41
2023-03-15T23:09:03.916Z,83.83
2023-03-15T23:11:32.703Z,83.81
2023-03-15T23:14:00.682Z,84.10
2023-03-15T23:16:28.409Z,83.97
2023-03-15T23:18:56.372Z,84.03
2023-03-15T23:21:24.129Z,84.00
2023-03-15T23:23:52.105Z,84.23
2023-03-15T23:26:20.741Z,84.39
2023-03-15T23:28:48.624Z,84.08
2023-03-15T23:31:16.344Z,84.73
2023-03-15T23:33:47.060Z,84.72
2023-03-15T23:36:15.112Z,85.20
2023-03-15T23:38:43.213Z,85.25
2023-03-15T23:41:12.474Z,85.25
2023-03-15T23:43:41.644Z,85.19
2023-03-15T23:46:09.927Z,85.02
2023-03-15T23:48:37.884Z,85.31
2023-03-15T23:51:05.874Z,85.39
2023-03-15T23:53:34.269Z,85.60
2023-03-15T23:56:02.666Z,85.66
2023-03-15T23:58:30.698Z,85.87
